sensor_id;sensor_type;location;lat;lon;timestamp;P1;P2;P0
69349;PMS5003;64554;43.452;4.934;2024-03-25T00:01:57;2.00;2.00;1.00
69349;PMS5003;64554;43.452;4.934;2024-03-25T00:04:23;5.00;3.33;0.33
69349;PMS5003;64554;43.452;4.934;2024-03-25T00:06:49;2.00;2.00;1.00
69349;PMS5003;64554;43.452;4.934;2024-03-25T00:09:14;3.00;3.00;2.00
69349;PMS5003;64554;43.452;4.934;2024-03-25T00:11:40;1.00;1.00;0.50
69349;PMS5003;64554;43.452;4.934;2024-03-25T00:14:06;1.40;0.40;0.40
69349;PMS5003;64554;43.452;4.934;2024-03-25T00:16:31;1.50;1.50;1.00
69349;PMS5003;64554;43.452;4.934;2024-03-25T00:18:57;2.25;2.25;0.25
69349;PMS5003;64554;43.452;4.934;2024-03-25T00:21:22;2.00;2.00;1.00
69349;PMS5003;64554;43.452;4.934;2024-03-25T00:23:48;2.75;2.75;1.75
69349;PMS5003;64554;43.452;4.934;2024-03-25T00:26:13;5.50;5.50;1.00
69349;PMS5003;64554;43.452;4.934;2024-03-25T00:28:39;1.00;1.00;1.00
69349;PMS5003;64554;43.452;4.934;2024-03-25T00:31:04;3.00;3.00;2.00
69349;PMS5003;64554;43.452;4.934;2024-03-25T00:33:30;1.00;1.00;1.00
69349;PMS5003;64554;43.452;4.934;2024-03-25T00:35:55;1.50;1.25;1.25
69349;PMS5003;64554;43.452;4.934;2024-03-25T00:38:21;3.00;3.00;1.50
69349;PMS5003;64554;43.452;4.934;2024-03-25T00:40:46;1.00;1.00;0.50
69349;PMS5003;64554;43.452;4.934;2024-03-25T00:43:12;3.00;3.00;1.00
69349;PMS5003;64554;43.452;4.934;2024-03-25T00:45:37;3.00;2.00;1.00
69349;PMS5003;64554;43.452;4.934;2024-03-25T00:48:03;2.00;2.00;1.00
69349;PMS5003;64554;43.452;4.934;2024-03-25T00:50:29;3.00;2.00;0.33
69349;PMS5003;64554;43.452;4.934;2024-03-25T00:52:54;2.00;2.00;1.00
69349;PMS5003;64554;43.452;4.934;2024-03-25T00:55:19;5.00;5.00;2.00
69349;PMS5003;64554;43.452;4.934;2024-03-25T00:57:46;5.00;4.00;2.00
69349;PMS5003;64554;43.452;4.934;2024-03-25T01:00:11;2.00;2.00;1.00
69349;PMS5003;64554;43.452;4.934;2024-03-25T01:02:37;1.40;0.40;0.40
69349;PMS5003;64554;43.452;4.934;2024-03-25T01:05:03;1.00;1.00;1.00
69349;PMS5003;64554;43.452;4.934;2024-03-25T01:07:30;2.00;2.00;1.00
69349;PMS5003;64554;43.452;4.934;2024-03-25T01:09:56;2.00;2.00;1.00
69349;PMS5003;64554;43.452;4.934;2024-03-25T01:12:21;2.00;2.00;1.00
69349;PMS5003;64554;43.452;4.934;2024-03-25T01:14:47;3.00;3.00;2.00
69349;PMS5003;64554;43.452;4.934;2024-03-25T01:17:12;2.75;2.75;1.75
69349;PMS5003;64554;43.452;4.934;2024-03-25T01:19:38;3.00;2.00;2.00
69349;PMS5003;64554;43.452;4.934;2024-03-25T01:22:03;4.00;2.75;1.00
69349;PMS5003;64554;43.452;4.934;2024-03-25T01:24:30;4.00;3.00;1.00
69349;PMS5003;64554;43.452;4.934;2024-03-25T01:26:55;2.00;2.00;1.00
69349;PMS5003;64554;43.452;4.934;2024-03-25T01:29:21;1.60;1.60;1.00
69349;PMS5003;64554;43.452;4.934;2024-03-25T01:31:47;1.50;1.50;1.00
69349;PMS5003;64554;43.452;4.934;2024-03-25T01:34:12;2.00;2.00;0.00
69349;PMS5003;64554;43.452;4.934;2024-03-25T01:36:38;3.00;2.00;1.00
69349;PMS5003;64554;43.452;4.934;2024-03-25T01:39:04;1.75;1.75;1.00
69349;PMS5003;64554;43.452;4.934;2024-03-25T01:41:30;3.00;3.00;1.75
69349;PMS5003;64554;43.452;4.934;2024-03-25T01:43:55;2.00;2.00;1.00
69349;PMS5003;64554;43.452;4.934;2024-03-25T01:46:21;1.00;1.00;1.00
69349;PMS5003;64554;43.452;4.934;2024-03-25T01:48:47;1.33;1.33;1.00
69349;PMS5003;64554;43.452;4.934;2024-03-25T01:51:14;2.80;1.80;1.00
69349;PMS5003;64554;43.452;4.934;2024-03-25T01:53:41;1.60;1.60;1.00
69349;PMS5003;64554;43.452;4.934;2024-03-25T01:56:07;3.00;1.00;1.00
69349;PMS5003;64554;43.452;4.934;2024-03-25T01:58:33;2.80;2.80;1.00
69349;PMS5003;64554;43.452;4.934;2024-03-25T02:00:58;2.00;2.00;1.00
69349;PMS5003;64554;43.452;4.934;2024-03-25T02:03:26;2.00;2.00;1.00
69349;PMS5003;64554;43.452;4.934;2024-03-25T02:05:55;2.00;2.00;1.00
69349;PMS5003;64554;43.452;4.934;2024-03-25T02:08:22;2.00;2.00;1.00
69349;PMS5003;64554;43.452;4.934;2024-03-25T02:10:48;1.00;1.00;0.60
69349;PMS5003;64554;43.452;4.934;2024-03-25T02:13:14;3.00;3.00;2.00
69349;PMS5003;64554;43.452;4.934;2024-03-25T02:15:40;1.20;1.00;0.00
69349;PMS5003;64554;43.452;4.934;2024-03-25T02:18:06;1.00;1.00;0.80
69349;PMS5003;64554;43.452;4.934;2024-03-25T02:20:31;1.25;1.25;0.25
69349;PMS5003;64554;43.452;4.934;2024-03-25T02:22:57;2.50;2.00;1.00
69349;PMS5003;64554;43.452;4.934;2024-03-25T02:25:23;3.00;3.00;1.00
69349;PMS5003;64554;43.452;4.934;2024-03-25T02:27:49;3.00;3.00;1.60
69349;PMS5003;64554;43.452;4.934;2024-03-25T02:30:15;1.00;1.00;1.00
69349;PMS5003;64554;43.452;4.934;2024-03-25T02:32:41;3.00;2.00;1.00
69349;PMS5003;64554;43.452;4.934;2024-03-25T02:35:07;2.00;2.00;1.50
69349;PMS5003;64554;43.452;4.934;2024-03-25T02:37:33;5.40;2.40;1.00
69349;PMS5003;64554;43.452;4.934;2024-03-25T02:40:00;2.00;2.00;1.00
69349;PMS5003;64554;43.452;4.934;2024-03-25T02:42:26;2.00;2.00;1.00
69349;PMS5003;64554;43.452;4.934;2024-03-25T02:44:53;1.00;1.00;1.00
69349;PMS5003;64554;43.452;4.934;2024-03-25T02:47:18;3.00;1.50;1.00
69349;PMS5003;64554;43.452;4.934;2024-03-25T02:49:45;3.00;2.00;1.00
69349;PMS5003;64554;43.452;4.934;2024-03-25T02:52:11;2.50;2.50;1.00
69349;PMS5003;64554;43.452;4.934;2024-03-25T02:54:36;4.00;3.00;1.25
69349;PMS5003;64554;43.452;4.934;2024-03-25T02:57:02;3.00;2.00;2.00
69349;PMS5003;64554;43.452;4.934;2024-03-25T02:59:27;3.00;2.00;2.00
69349;PMS5003;64554;43.452;4.934;2024-03-25T03:01:53;3.00;3.00;2.00
69349;PMS5003;64554;43.452;4.934;2024-03-25T03:04:18;3.00;3.00;1.00
69349;PMS5003;64554;43.452;4.934;2024-03-25T03:06:44;3.67;1.67;1.00
69349;PMS5003;64554;43.452;4.934;2024-03-25T03:09:10;3.00;3.00;1.00
69349;PMS5003;64554;43.452;4.934;2024-03-25T03:11:35;3.00;3.00;1.20
69349;PMS5003;64554;43.452;4.934;2024-03-25T03:14:01;3.00;3.00;1.00
69349;PMS5003;64554;43.452;4.934;2024-03-25T03:16:26;3.00;3.00;1.00
69349;PMS5003;64554;43.452;4.934;2024-03-25T03:18:52;2.00;2.00;1.75
69349;PMS5003;64554;43.452;4.934;2024-03-25T03:21:17;2.00;2.00;1.00
69349;PMS5003;64554;43.452;4.934;2024-03-25T03:23:43;2.00;2.00;1.00
69349;PMS5003;64554;43.452;4.934;2024-03-25T03:26:08;3.00;3.00;2.00
69349;PMS5003;64554;43.452;4.934;2024-03-25T03:28:34;4.00;2.00;2.00
69349;PMS5003;64554;43.452;4.934;2024-03-25T03:31:00;2.00;2.00;1.00
69349;PMS5003;64554;43.452;4.934;2024-03-25T03:33:25;6.25;6.25;2.00
69349;PMS5003;64554;43.452;4.934;2024-03-25T03:35:51;2.00;2.00;1.00
69349;PMS5003;64554;43.452;4.934;2024-03-25T03:38:17;2.00;2.00;2.00
69349;PMS5003;64554;43.452;4.934;2024-03-25T03:40:42;3.00;3.00;2.00
69349;PMS5003;64554;43.452;4.934;2024-03-25T03:43:08;2.00;2.00;2.00
69349;PMS5003;64554;43.452;4.934;2024-03-25T03:45:33;3.00;3.00;1.25
69349;PMS5003;64554;43.452;4.934;2024-03-25T03:48:01;2.00;2.00;1.00
69349;PMS5003;64554;43.452;4.934;2024-03-25T03:50:27;2.00;2.00;0.50
69349;PMS5003;64554;43.452;4.934;2024-03-25T03:52:52;6.75;4.00;2.00
69349;PMS5003;64554;43.452;4.934;2024-03-25T03:55:18;3.00;3.00;1.00
69349;PMS5003;64554;43.452;4.934;2024-03-25T03:57:44;2.00;2.00;1.00
69349;PMS5003;64554;43.452;4.934;2024-03-25T04:00:10;5.00;2.00;1.00
69349;PMS5003;64554;43.452;4.934;2024-03-25T04:02:39;1.00;1.00;1.00
69349;PMS5003;64554;43.452;4.934;2024-03-25T04:05:04;2.00;2.00;1.00
69349;PMS5003;64554;43.452;4.934;2024-03-25T04:07:31;3.00;2.00;1.80
69349;PMS5003;64554;43.452;4.934;2024-03-25T04:09:57;2.00;2.00;1.00
69349;PMS5003;64554;43.452;4.934;2024-03-25T04:12:23;2.80;2.80;2.00
69349;PMS5003;64554;43.452;4.934;2024-03-25T04:14:48;2.00;2.00;2.00
69349;PMS5003;64554;43.452;4.934;2024-03-25T04:17:20;4.00;3.00;2.00
69349;PMS5003;64554;43.452;4.934;2024-03-25T04:19:45;4.00;3.00;2.00
69349;PMS5003;64554;43.452;4.934;2024-03-25T04:22:11;5.25;4.00;2.00
69349;PMS5003;64554;43.452;4.934;2024-03-25T04:24:36;2.00;2.00;1.00
69349;PMS5003;64554;43.452;4.934;2024-03-25T04:27:01;3.25;3.25;2.00
69349;PMS5003;64554;43.452;4.934;2024-03-25T04:29:27;6.00;3.00;1.00
69349;PMS5003;64554;43.452;4.934;2024-03-25T04:31:54;2.60;2.60;1.60
69349;PMS5003;64554;43.452;4.934;2024-03-25T04:34:20;2.00;2.00;1.00
69349;PMS5003;64554;43.452;4.934;2024-03-25T04:36:46;6.50;3.00;1.00
69349;PMS5003;64554;43.452;4.934;2024-03-25T04:39:11;2.00;2.00;2.00
69349;PMS5003;64554;43.452;4.934;2024-03-25T04:41:37;5.00;4.00;1.33
69349;PMS5003;64554;43.452;4.934;2024-03-25T04:44:02;3.00;2.00;1.00
69349;PMS5003;64554;43.452;4.934;2024-03-25T04:46:28;2.00;2.00;1.00
69349;PMS5003;64554;43.452;4.934;2024-03-25T04:48:53;4.00;3.00;2.00
69349;PMS5003;64554;43.452;4.934;2024-03-25T04:51:19;5.00;4.00;2.33
69349;PMS5003;64554;43.452;4.934;2024-03-25T04:53:44;3.00;3.00;2.00
69349;PMS5003;64554;43.452;4.934;2024-03-25T04:56:10;4.80;3.20;2.00
69349;PMS5003;64554;43.452;4.934;2024-03-25T04:58:36;2.60;2.40;2.00
69349;PMS5003;64554;43.452;4.934;2024-03-25T05:01:01;3.50;3.50;1.00
69349;PMS5003;64554;43.452;4.934;2024-03-25T05:03:26;3.75;3.00;2.00
69349;PMS5003;64554;43.452;4.934;2024-03-25T05:05:52;6.00;4.25;2.25
69349;PMS5003;64554;43.452;4.934;2024-03-25T05:08:17;7.00;7.00;4.00
69349;PMS5003;64554;43.452;4.934;2024-03-25T05:10:43;11.75;9.00;6.00
69349;PMS5003;64554;43.452;4.934;2024-03-25T05:13:08;9.00;8.50;6.00
69349;PMS5003;64554;43.452;4.934;2024-03-25T05:15:34;9.50;8.00;4.75
69349;PMS5003;64554;43.452;4.934;2024-03-25T05:17:59;6.00;6.00;4.75
69349;PMS5003;64554;43.452;4.934;2024-03-25T05:20:25;5.33;5.33;3.00
69349;PMS5003;64554;43.452;4.934;2024-03-25T05:22:52;5.00;3.00;2.00
69349;PMS5003;64554;43.452;4.934;2024-03-25T05:25:17;4.00;4.00;2.00
69349;PMS5003;64554;43.452;4.934;2024-03-25T05:27:42;7.00;4.50;2.50
69349;PMS5003;64554;43.452;4.934;2024-03-25T05:30:08;6.00;4.00;3.00
69349;PMS5003;64554;43.452;4.934;2024-03-25T05:32:34;3.50;3.25;2.00
69349;PMS5003;64554;43.452;4.934;2024-03-25T05:34:59;4.75;4.75;3.00
69349;PMS5003;64554;43.452;4.934;2024-03-25T05:37:24;5.50;5.00;3.00
69349;PMS5003;64554;43.452;4.934;2024-03-25T05:39:50;3.00;2.75;2.00
69349;PMS5003;64554;43.452;4.934;2024-03-25T05:42:16;4.00;4.00;3.00
69349;PMS5003;64554;43.452;4.934;2024-03-25T05:44:41;16.00;14.00;8.50
69349;PMS5003;64554;43.452;4.934;2024-03-25T05:47:06;18.75;15.75;11.50
69349;PMS5003;64554;43.452;4.934;2024-03-25T05:49:32;8.00;6.00;4.00
69349;PMS5003;64554;43.452;4.934;2024-03-25T05:51:57;10.00;8.00;5.00
69349;PMS5003;64554;43.452;4.934;2024-03-25T05:54:23;6.00;6.00;5.00
69349;PMS5003;64554;43.452;4.934;2024-03-25T05:56:49;11.00;11.00;8.00
69349;PMS5003;64554;43.452;4.934;2024-03-25T05:59:14;14.00;12.00;9.00
69349;PMS5003;64554;43.452;4.934;2024-03-25T06:01:39;11.00;11.00;7.00
69349;PMS5003;64554;43.452;4.934;2024-03-25T06:04:05;17.25;17.00;13.00
69349;PMS5003;64554;43.452;4.934;2024-03-25T06:06:31;13.25;12.25;8.00
69349;PMS5003;64554;43.452;4.934;2024-03-25T06:08:57;18.33;17.00;12.67
69349;PMS5003;64554;43.452;4.934;2024-03-25T06:11:22;12.00;10.67;9.00
69349;PMS5003;64554;43.452;4.934;2024-03-25T06:13:48;11.00;11.00;8.00
69349;PMS5003;64554;43.452;4.934;2024-03-25T06:16:14;8.00;6.75;5.00
69349;PMS5003;64554;43.452;4.934;2024-03-25T06:18:39;7.60;6.60;4.60
69349;PMS5003;64554;43.452;4.934;2024-03-25T06:21:07;5.00;5.00;3.00
69349;PMS5003;64554;43.452;4.934;2024-03-25T06:23:33;5.00;5.00;3.75
69349;PMS5003;64554;43.452;4.934;2024-03-25T06:25:58;3.25;3.25;2.00
69349;PMS5003;64554;43.452;4.934;2024-03-25T06:28:24;5.00;5.00;3.33
69349;PMS5003;64554;43.452;4.934;2024-03-25T06:30:50;4.00;4.00;3.00
69349;PMS5003;64554;43.452;4.934;2024-03-25T06:33:34;8.75;6.50;2.50
69349;PMS5003;64554;43.452;4.934;2024-03-25T06:36:19;5.40;5.40;3.40
69349;PMS5003;64554;43.452;4.934;2024-03-25T06:38:44;4.75;4.75;2.00
69349;PMS5003;64554;43.452;4.934;2024-03-25T06:41:10;7.00;7.00;5.00
69349;PMS5003;64554;43.452;4.934;2024-03-25T06:43:36;5.00;5.00;3.00
69349;PMS5003;64554;43.452;4.934;2024-03-25T06:46:01;2.00;2.00;1.00
69349;PMS5003;64554;43.452;4.934;2024-03-25T06:48:27;0.50;0.50;0.50
69349;PMS5003;64554;43.452;4.934;2024-03-25T06:50:53;3.80;3.80;1.80
69349;PMS5003;64554;43.452;4.934;2024-03-25T06:53:19;1.00;1.00;0.00
69349;PMS5003;64554;43.452;4.934;2024-03-25T06:56:00;2.00;2.00;1.00
69349;PMS5003;64554;43.452;4.934;2024-03-25T06:58:29;1.00;1.00;1.00
69349;PMS5003;64554;43.452;4.934;2024-03-25T07:00:55;2.00;2.00;1.00
69349;PMS5003;64554;43.452;4.934;2024-03-25T07:03:21;2.20;2.20;0.20
69349;PMS5003;64554;43.452;4.934;2024-03-25T07:05:47;3.00;3.00;1.00
69349;PMS5003;64554;43.452;4.934;2024-03-25T07:08:14;2.60;2.00;1.00
69349;PMS5003;64554;43.452;4.934;2024-03-25T07:10:43;3.50;1.75;1.50
69349;PMS5003;64554;43.452;4.934;2024-03-25T07:13:08;4.00;2.25;1.00
69349;PMS5003;64554;43.452;4.934;2024-03-25T07:15:34;3.00;3.00;1.00
69349;PMS5003;64554;43.452;4.934;2024-03-25T07:18:00;2.25;2.25;1.00
69349;PMS5003;64554;43.452;4.934;2024-03-25T07:20:25;2.00;2.00;1.00
69349;PMS5003;64554;43.452;4.934;2024-03-25T07:22:54;2.00;2.00;2.00
69349;PMS5003;64554;43.452;4.934;2024-03-25T07:25:21;2.40;2.40;1.40
69349;PMS5003;64554;43.452;4.934;2024-03-25T07:27:46;3.00;3.00;2.00
69349;PMS5003;64554;43.452;4.934;2024-03-25T07:30:12;5.00;3.50;2.50
69349;PMS5003;64554;43.452;4.934;2024-03-25T07:32:37;3.00;3.00;1.75
69349;PMS5003;64554;43.452;4.934;2024-03-25T07:35:03;3.75;3.75;2.00
69349;PMS5003;64554;43.452;4.934;2024-03-25T07:37:30;2.00;2.00;1.00
69349;PMS5003;64554;43.452;4.934;2024-03-25T07:39:55;4.00;4.00;2.00
69349;PMS5003;64554;43.452;4.934;2024-03-25T07:42:21;3.00;3.00;2.00
69349;PMS5003;64554;43.452;4.934;2024-03-25T07:44:46;4.00;4.00;2.50
69349;PMS5003;64554;43.452;4.934;2024-03-25T07:47:12;8.00;5.50;3.00
69349;PMS5003;64554;43.452;4.934;2024-03-25T07:49:37;4.75;4.00;2.00
69349;PMS5003;64554;43.452;4.934;2024-03-25T07:52:05;3.75;3.75;3.00
69349;PMS5003;64554;43.452;4.934;2024-03-25T07:54:31;2.60;2.60;2.00
69349;PMS5003;64554;43.452;4.934;2024-03-25T07:56:56;5.00;4.00;2.00
69349;PMS5003;64554;43.452;4.934;2024-03-25T07:59:22;3.00;3.00;2.00
69349;PMS5003;64554;43.452;4.934;2024-03-25T08:01:47;6.25;6.25;2.50
69349;PMS5003;64554;43.452;4.934;2024-03-25T08:04:13;3.00;3.00;2.00
69349;PMS5003;64554;43.452;4.934;2024-03-25T08:06:38;4.00;4.00;2.00
69349;PMS5003;64554;43.452;4.934;2024-03-25T08:09:03;4.00;4.00;2.00
69349;PMS5003;64554;43.452;4.934;2024-03-25T08:11:32;4.00;3.00;2.00
69349;PMS5003;64554;43.452;4.934;2024-03-25T08:13:58;3.25;3.25;2.00
69349;PMS5003;64554;43.452;4.934;2024-03-25T08:16:24;2.00;0.80;0.00
69349;PMS5003;64554;43.452;4.934;2024-03-25T08:18:49;2.75;2.75;2.00
69349;PMS5003;64554;43.452;4.934;2024-03-25T08:21:15;1.00;1.00;0.00
69349;PMS5003;64554;43.452;4.934;2024-03-25T08:23:41;1.60;1.60;1.60
69349;PMS5003;64554;43.452;4.934;2024-03-25T08:26:06;2.75;1.25;0.25
69349;PMS5003;64554;43.452;4.934;2024-03-25T08:28:32;2.00;2.00;1.67
69349;PMS5003;64554;43.452;4.934;2024-03-25T08:30:58;2.60;2.60;2.00
69349;PMS5003;64554;43.452;4.934;2024-03-25T08:33:24;2.50;2.50;0.50
69349;PMS5003;64554;43.452;4.934;2024-03-25T08:35:49;4.00;4.00;2.60
69349;PMS5003;64554;43.452;4.934;2024-03-25T08:38:14;3.00;3.00;2.00
69349;PMS5003;64554;43.452;4.934;2024-03-25T08:40:40;3.00;2.33;2.00
69349;PMS5003;64554;43.452;4.934;2024-03-25T08:43:06;2.50;2.50;1.50
69349;PMS5003;64554;43.452;4.934;2024-03-25T08:45:32;4.00;2.00;1.00
69349;PMS5003;64554;43.452;4.934;2024-03-25T08:47:57;2.75;2.75;2.00
69349;PMS5003;64554;43.452;4.934;2024-03-25T08:50:23;2.20;2.20;2.00
69349;PMS5003;64554;43.452;4.934;2024-03-25T08:52:49;1.33;1.33;0.33
69349;PMS5003;64554;43.452;4.934;2024-03-25T08:55:14;2.40;2.40;1.00
69349;PMS5003;64554;43.452;4.934;2024-03-25T08:57:40;1.60;1.60;1.00
69349;PMS5003;64554;43.452;4.934;2024-03-25T09:00:06;1.33;1.33;1.00
69349;PMS5003;64554;43.452;4.934;2024-03-25T09:02:35;2.40;2.40;1.40
69349;PMS5003;64554;43.452;4.934;2024-03-25T09:05:01;3.00;3.00;1.00
69349;PMS5003;64554;43.452;4.934;2024-03-25T09:07:28;3.20;2.00;1.00
69349;PMS5003;64554;43.452;4.934;2024-03-25T09:09:53;4.00;3.00;1.00
69349;PMS5003;64554;43.452;4.934;2024-03-25T09:12:38;1.00;1.00;1.00
69349;PMS5003;64554;43.452;4.934;2024-03-25T09:15:04;2.00;2.00;1.00
69349;PMS5003;64554;43.452;4.934;2024-03-25T09:17:30;2.00;2.00;0.40
69349;PMS5003;64554;43.452;4.934;2024-03-25T09:19:56;4.80;3.40;2.00
69349;PMS5003;64554;43.452;4.934;2024-03-25T09:22:22;3.33;3.00;2.00
69349;PMS5003;64554;43.452;4.934;2024-03-25T09:24:48;0.50;0.50;0.00
69349;PMS5003;64554;43.452;4.934;2024-03-25T09:27:15;2.00;2.00;1.00
69349;PMS5003;64554;43.452;4.934;2024-03-25T09:29:41;5.40;2.20;1.40
69349;PMS5003;64554;43.452;4.934;2024-03-25T09:32:07;2.00;2.00;1.00
69349;PMS5003;64554;43.452;4.934;2024-03-25T09:34:32;2.00;2.00;0.75
69349;PMS5003;64554;43.452;4.934;2024-03-25T09:36:58;3.00;2.75;1.00
69349;PMS5003;64554;43.452;4.934;2024-03-25T09:39:23;11.00;4.50;2.00
69349;PMS5003;64554;43.452;4.934;2024-03-25T09:41:49;2.75;2.75;1.00
69349;PMS5003;64554;43.452;4.934;2024-03-25T09:44:16;5.00;3.00;2.00
69349;PMS5003;64554;43.452;4.934;2024-03-25T09:46:43;3.80;3.80;1.00
69349;PMS5003;64554;43.452;4.934;2024-03-25T09:49:08;3.50;1.50;0.50
69349;PMS5003;64554;43.452;4.934;2024-03-25T09:51:34;4.00;3.00;1.60
69349;PMS5003;64554;43.452;4.934;2024-03-25T09:54:00;2.00;2.00;1.00
69349;PMS5003;64554;43.452;4.934;2024-03-25T09:56:25;2.00;2.00;1.00
69349;PMS5003;64554;43.452;4.934;2024-03-25T09:58:51;2.00;2.00;1.00
69349;PMS5003;64554;43.452;4.934;2024-03-25T10:01:17;2.00;2.00;1.00
69349;PMS5003;64554;43.452;4.934;2024-03-25T10:03:43;2.00;2.00;2.00
69349;PMS5003;64554;43.452;4.934;2024-03-25T10:06:09;2.00;2.00;1.00
69349;PMS5003;64554;43.452;4.934;2024-03-25T10:08:35;3.80;2.00;1.20
69349;PMS5003;64554;43.452;4.934;2024-03-25T10:11:00;2.25;2.25;1.25
69349;PMS5003;64554;43.452;4.934;2024-03-25T10:13:27;3.00;1.25;1.00
69349;PMS5003;64554;43.452;4.934;2024-03-25T10:15:54;1.50;1.50;1.00
69349;PMS5003;64554;43.452;4.934;2024-03-25T10:18:20;3.80;2.80;2.00
69349;PMS5003;64554;43.452;4.934;2024-03-25T10:20:51;2.75;2.75;1.75
69349;PMS5003;64554;43.452;4.934;2024-03-25T10:23:20;3.00;2.00;1.00
69349;PMS5003;64554;43.452;4.934;2024-03-25T10:25:47;4.00;2.80;1.20
69349;PMS5003;64554;43.452;4.934;2024-03-25T10:28:13;4.25;3.00;1.00
69349;PMS5003;64554;43.452;4.934;2024-03-25T10:30:38;2.50;2.50;1.50
69349;PMS5003;64554;43.452;4.934;2024-03-25T10:33:06;4.00;3.00;2.00
69349;PMS5003;64554;43.452;4.934;2024-03-25T10:35:32;3.50;3.50;2.50
69349;PMS5003;64554;43.452;4.934;2024-03-25T10:37:58;5.00;4.00;3.00
69349;PMS5003;64554;43.452;4.934;2024-03-25T10:40:26;1.60;1.60;1.00
69349;PMS5003;64554;43.452;4.934;2024-03-25T10:42:54;5.00;5.00;2.00
69349;PMS5003;64554;43.452;4.934;2024-03-25T10:45:21;4.00;3.60;1.60
69349;PMS5003;64554;43.452;4.934;2024-03-25T10:47:46;4.00;3.00;1.00
69349;PMS5003;64554;43.452;4.934;2024-03-25T10:50:13;3.75;2.75;1.00
69349;PMS5003;64554;43.452;4.934;2024-03-25T10:52:41;4.00;3.00;1.00
69349;PMS5003;64554;43.452;4.934;2024-03-25T10:55:07;5.00;4.00;2.00
69349;PMS5003;64554;43.452;4.934;2024-03-25T10:57:35;7.80;4.00;2.00
69349;PMS5003;64554;43.452;4.934;2024-03-25T11:00:00;4.60;2.60;1.60
69349;PMS5003;64554;43.452;4.934;2024-03-25T11:02:26;4.75;3.00;1.25
69349;PMS5003;64554;43.452;4.934;2024-03-25T11:04:52;7.40;6.20;3.20
69349;PMS5003;64554;43.452;4.934;2024-03-25T11:07:30;5.75;3.25;2.00
69349;PMS5003;64554;43.452;4.934;2024-03-25T11:10:02;5.00;2.20;1.20
69349;PMS5003;64554;43.452;4.934;2024-03-25T11:12:31;5.50;3.00;2.00
69349;PMS5003;64554;43.452;4.934;2024-03-25T11:14:57;5.00;5.00;2.00
69349;PMS5003;64554;43.452;4.934;2024-03-25T11:17:23;3.00;3.00;2.00
69349;PMS5003;64554;43.452;4.934;2024-03-25T11:19:48;5.50;4.25;2.25
69349;PMS5003;64554;43.452;4.934;2024-03-25T11:22:13;6.00;3.00;2.00
69349;PMS5003;64554;43.452;4.934;2024-03-25T11:24:43;7.67;6.00;2.00
69349;PMS5003;64554;43.452;4.934;2024-03-25T11:27:09;6.80;5.20;1.80
69349;PMS5003;64554;43.452;4.934;2024-03-25T11:29:34;5.00;5.00;2.00
69349;PMS5003;64554;43.452;4.934;2024-03-25T11:32:04;6.00;4.00;3.00
69349;PMS5003;64554;43.452;4.934;2024-03-25T11:34:29;5.50;3.00;1.00
69349;PMS5003;64554;43.452;4.934;2024-03-25T11:36:55;5.00;3.50;1.50
69349;PMS5003;64554;43.452;4.934;2024-03-25T11:39:24;6.00;5.00;2.00
69349;PMS5003;64554;43.452;4.934;2024-03-25T11:41:52;4.00;4.00;2.00
69349;PMS5003;64554;43.452;4.934;2024-03-25T11:44:17;4.00;3.00;1.00
69349;PMS5003;64554;43.452;4.934;2024-03-25T11:46:43;2.50;2.00;1.00
69349;PMS5003;64554;43.452;4.934;2024-03-25T11:49:12;3.33;1.33;0.33
69349;PMS5003;64554;43.452;4.934;2024-03-25T11:51:38;2.00;2.00;1.00
69349;PMS5003;64554;43.452;4.934;2024-03-25T11:54:07;5.25;2.50;1.50
69349;PMS5003;64554;43.452;4.934;2024-03-25T11:56:33;4.00;1.00;1.00
69349;PMS5003;64554;43.452;4.934;2024-03-25T11:58:59;5.50;5.50;2.00
69349;PMS5003;64554;43.452;4.934;2024-03-25T12:01:24;6.60;4.00;2.00
69349;PMS5003;64554;43.452;4.934;2024-03-25T12:03:51;1.50;1.50;1.00
69349;PMS5003;64554;43.452;4.934;2024-03-25T12:06:16;2.75;2.75;1.00
69349;PMS5003;64554;43.452;4.934;2024-03-25T12:08:42;4.50;2.50;1.50
69349;PMS5003;64554;43.452;4.934;2024-03-25T12:11:27;2.00;1.00;1.00
69349;PMS5003;64554;43.452;4.934;2024-03-25T12:13:53;4.00;3.00;1.00
69349;PMS5003;64554;43.452;4.934;2024-03-25T12:16:18;4.00;2.00;1.00
69349;PMS5003;64554;43.452;4.934;2024-03-25T12:18:45;2.00;2.00;0.00
69349;PMS5003;64554;43.452;4.934;2024-03-25T12:21:10;3.25;3.25;1.25
69349;PMS5003;64554;43.452;4.934;2024-03-25T12:23:36;3.00;2.00;1.00
69349;PMS5003;64554;43.452;4.934;2024-03-25T12:26:02;7.00;4.20;2.80
69349;PMS5003;64554;43.452;4.934;2024-03-25T12:28:30;4.20;4.00;1.00
69349;PMS5003;64554;43.452;4.934;2024-03-25T12:30:56;6.00;4.00;2.00
69349;PMS5003;64554;43.452;4.934;2024-03-25T12:33:22;6.00;4.00;1.00
69349;PMS5003;64554;43.452;4.934;2024-03-25T12:35:48;8.20;8.20;2.00
69349;PMS5003;64554;43.452;4.934;2024-03-25T12:38:27;3.75;3.75;1.00
69349;PMS5003;64554;43.452;4.934;2024-03-25T12:43:34;4.00;3.00;1.00
69349;PMS5003;64554;43.452;4.934;2024-03-25T12:46:00;7.75;5.00;1.00
69349;PMS5003;64554;43.452;4.934;2024-03-25T12:48:26;3.75;1.50;0.50
69349;PMS5003;64554;43.452;4.934;2024-03-25T12:50:51;3.80;2.00;1.00
69349;PMS5003;64554;43.452;4.934;2024-03-25T12:53:18;6.00;4.00;2.00
69349;PMS5003;64554;43.452;4.934;2024-03-25T12:55:45;6.00;4.00;2.00
69349;PMS5003;64554;43.452;4.934;2024-03-25T12:58:11;4.75;2.25;0.25
69349;PMS5003;64554;43.452;4.934;2024-03-25T13:00:36;7.50;5.00;2.50
69349;PMS5003;64554;43.452;4.934;2024-03-25T13:03:04;3.60;3.60;2.00
69349;PMS5003;64554;43.452;4.934;2024-03-25T13:05:30;5.00;3.40;2.00
69349;PMS5003;64554;43.452;4.934;2024-03-25T13:07:55;2.00;2.00;1.00
69349;PMS5003;64554;43.452;4.934;2024-03-25T13:10:21;4.20;1.80;0.20
69349;PMS5003;64554;43.452;4.934;2024-03-25T13:12:46;6.00;3.00;2.00
69349;PMS5003;64554;43.452;4.934;2024-03-25T13:15:12;5.00;4.33;1.67
69349;PMS5003;64554;43.452;4.934;2024-03-25T13:17:38;6.00;3.00;1.00
69349;PMS5003;64554;43.452;4.934;2024-03-25T13:20:04;8.00;4.00;2.00
69349;PMS5003;64554;43.452;4.934;2024-03-25T13:22:30;4.00;2.00;2.00
69349;PMS5003;64554;43.452;4.934;2024-03-25T13:24:57;7.50;2.50;1.00
69349;PMS5003;64554;43.452;4.934;2024-03-25T13:27:23;5.00;3.50;1.00
69349;PMS5003;64554;43.452;4.934;2024-03-25T13:29:48;2.00;2.00;1.67
69349;PMS5003;64554;43.452;4.934;2024-03-25T13:32:14;3.25;3.25;1.25
69349;PMS5003;64554;43.452;4.934;2024-03-25T13:34:40;4.67;2.00;1.67
69349;PMS5003;64554;43.452;4.934;2024-03-25T13:37:05;4.50;3.00;1.50
69349;PMS5003;64554;43.452;4.934;2024-03-25T13:39:31;6.00;2.20;0.40
69349;PMS5003;64554;43.452;4.934;2024-03-25T13:41:57;3.00;1.67;1.00
69349;PMS5003;64554;43.452;4.934;2024-03-25T13:44:22;7.00;3.25;0.25
69349;PMS5003;64554;43.452;4.934;2024-03-25T13:46:47;4.00;3.00;1.00
69349;PMS5003;64554;43.452;4.934;2024-03-25T13:49:13;6.50;6.50;1.00
69349;PMS5003;64554;43.452;4.934;2024-03-25T13:51:42;6.20;3.00;1.20
69349;PMS5003;64554;43.452;4.934;2024-03-25T13:54:07;5.00;3.00;1.00
69349;PMS5003;64554;43.452;4.934;2024-03-25T13:56:33;8.50;4.00;1.50
69349;PMS5003;64554;43.452;4.934;2024-03-25T13:58:58;3.00;3.00;1.75
69349;PMS5003;64554;43.452;4.934;2024-03-25T14:01:24;2.25;2.00;0.00
69349;PMS5003;64554;43.452;4.934;2024-03-25T14:03:50;4.00;1.25;0.25
69349;PMS5003;64554;43.452;4.934;2024-03-25T14:06:15;2.00;2.00;1.00
69349;PMS5003;64554;43.452;4.934;2024-03-25T14:08:40;2.00;1.00;0.00
69349;PMS5003;64554;43.452;4.934;2024-03-25T14:11:07;6.00;3.60;1.00
69349;PMS5003;64554;43.452;4.934;2024-03-25T14:13:33;3.40;1.80;0.40
69349;PMS5003;64554;43.452;4.934;2024-03-25T14:15:58;7.25;3.75;2.00
69349;PMS5003;64554;43.452;4.934;2024-03-25T14:18:24;6.75;4.00;1.00